sensor_id;sensor_type;location;lat;lon;timestamp;P1;durP1;ratioP1;P2;durP2;ratioP2
17496;SDS011;62150;43.582;1.456;2023-06-10T05:43:00;3.40;;;1.98;;
17496;SDS011;62150;43.582;1.456;2023-06-10T05:45:28;3.50;;;1.88;;
17496;SDS011;62150;43.582;1.456;2023-06-10T05:47:55;5.25;;;2.28;;
17496;SDS011;62150;43.582;1.456;2023-06-10T05:50:24;5.03;;;2.20;;
17496;SDS011;62150;43.582;1.456;2023-06-10T05:52:53;4.43;;;2.15;;
17496;SDS011;62150;43.582;1.456;2023-06-10T05:55:21;5.85;;;2.30;;
17496;SDS011;62150;43.582;1.456;2023-06-10T05:57:49;6.10;;;2.33;;
17496;SDS011;62150;43.582;1.456;2023-06-10T06:00:27;4.72;;;2.17;;
17496;SDS011;62150;43.582;1.456;2023-06-10T06:02:55;5.22;;;2.03;;
17496;SDS011;62150;43.582;1.456;2023-06-10T06:05:24;4.30;;;2.10;;
17496;SDS011;62150;43.582;1.456;2023-06-10T06:07:51;5.05;;;2.35;;
17496;SDS011;62150;43.582;1.456;2023-06-10T06:10:19;3.65;;;2.10;;
17496;SDS011;62150;43.582;1.456;2023-06-10T06:12:46;3.67;;;1.92;;
17496;SDS011;62150;43.582;1.456;2023-06-10T06:15:14;7.35;;;2.20;;
17496;SDS011;62150;43.582;1.456;2023-06-10T06:17:43;5.38;;;2.25;;
17496;SDS011;62150;43.582;1.456;2023-06-10T06:20:10;3.35;;;2.00;;
17496;SDS011;62150;43.582;1.456;2023-06-10T06:22:38;5.18;;;2.10;;
17496;SDS011;62150;43.582;1.456;2023-06-10T06:25:06;4.65;;;2.05;;
17496;SDS011;62150;43.582;1.456;2023-06-10T06:27:34;4.57;;;2.42;;
17496;SDS011;62150;43.582;1.456;2023-06-10T06:30:01;4.78;;;2.00;;
17496;SDS011;62150;43.582;1.456;2023-06-10T06:32:29;4.57;;;2.30;;
17496;SDS011;62150;43.582;1.456;2023-06-10T06:34:58;4.03;;;2.15;;
17496;SDS011;62150;43.582;1.456;2023-06-10T06:37:26;3.80;;;1.95;;
17496;SDS011;62150;43.582;1.456;2023-06-10T06:39:53;4.30;;;2.13;;
17496;SDS011;62150;43.582;1.456;2023-06-10T06:42:21;6.03;;;2.10;;
17496;SDS011;62150;43.582;1.456;2023-06-10T06:44:48;5.43;;;2.10;;
17496;SDS011;62150;43.582;1.456;2023-06-10T06:47:16;6.43;;;2.80;;
17496;SDS011;62150;43.582;1.456;2023-06-10T06:49:45;3.53;;;1.98;;
17496;SDS011;62150;43.582;1.456;2023-06-10T06:52:14;4.57;;;2.17;;
17496;SDS011;62150;43.582;1.456;2023-06-10T06:54:41;5.53;;;2.13;;
17496;SDS011;62150;43.582;1.456;2023-06-10T06:57:09;5.88;;;2.00;;
17496;SDS011;62150;43.582;1.456;2023-06-10T06:59:36;5.05;;;2.15;;
17496;SDS011;62150;43.582;1.456;2023-06-10T07:02:04;3.67;;;2.00;;
17496;SDS011;62150;43.582;1.456;2023-06-10T07:04:32;5.40;;;1.95;;
17496;SDS011;62150;43.582;1.456;2023-06-10T07:07:00;3.42;;;1.95;;
17496;SDS011;62150;43.582;1.456;2023-06-10T07:09:28;3.25;;;1.83;;
17496;SDS011;62150;43.582;1.456;2023-06-10T07:11:56;6.03;;;2.00;;
17496;SDS011;62150;43.582;1.456;2023-06-10T07:14:23;4.15;;;1.92;;
17496;SDS011;62150;43.582;1.456;2023-06-10T07:16:51;3.88;;;1.90;;
17496;SDS011;62150;43.582;1.456;2023-06-10T07:19:18;5.38;;;2.08;;
17496;SDS011;62150;43.582;1.456;2023-06-10T07:21:46;4.97;;;2.00;;
17496;SDS011;62150;43.582;1.456;2023-06-10T07:24:13;5.05;;;2.17;;
17496;SDS011;62150;43.582;1.456;2023-06-10T07:26:42;5.70;;;2.30;;
17496;SDS011;62150;43.582;1.456;2023-06-10T07:29:10;6.15;;;1.90;;
17496;SDS011;62150;43.582;1.456;2023-06-10T07:31:37;3.45;;;2.20;;
17496;SDS011;62150;43.582;1.456;2023-06-10T07:34:06;4.32;;;2.10;;
17496;SDS011;62150;43.582;1.456;2023-06-10T07:36:34;4.70;;;1.88;;
17496;SDS011;62150;43.582;1.456;2023-06-10T07:39:01;4.90;;;2.15;;
17496;SDS011;62150;43.582;1.456;2023-06-10T07:41:29;5.65;;;2.03;;
17496;SDS011;62150;43.582;1.456;2023-06-10T07:43:58;6.10;;;2.10;;
17496;SDS011;62150;43.582;1.456;2023-06-10T07:46:26;3.55;;;2.10;;
17496;SDS011;62150;43.582;1.456;2023-06-10T07:48:53;4.35;;;2.20;;
17496;SDS011;62150;43.582;1.456;2023-06-10T07:51:21;4.00;;;1.90;;
17496;SDS011;62150;43.582;1.456;2023-06-10T07:53:49;3.50;;;2.00;;
17496;SDS011;62150;43.582;1.456;2023-06-10T07:56:16;3.55;;;1.92;;
17496;SDS011;62150;43.582;1.456;2023-06-10T07:58:45;4.93;;;2.10;;
17496;SDS011;62150;43.582;1.456;2023-06-10T08:01:14;3.50;;;2.05;;
17496;SDS011;62150;43.582;1.456;2023-06-10T08:03:42;6.40;;;2.50;;
17496;SDS011;62150;43.582;1.456;2023-06-10T08:06:09;4.72;;;1.98;;
17496;SDS011;62150;43.582;1.456;2023-06-10T08:08:37;4.85;;;2.30;;
17496;SDS011;62150;43.582;1.456;2023-06-10T08:11:08;4.28;;;2.22;;
17496;SDS011;62150;43.582;1.456;2023-06-10T08:13:35;3.58;;;2.17;;
17496;SDS011;62150;43.582;1.456;2023-06-10T08:16:03;3.35;;;2.22;;
17496;SDS011;62150;43.582;1.456;2023-06-10T08:18:32;3.83;;;2.10;;
17496;SDS011;62150;43.582;1.456;2023-06-10T08:21:00;4.82;;;2.00;;
17496;SDS011;62150;43.582;1.456;2023-06-10T08:23:27;5.47;;;2.10;;
17496;SDS011;62150;43.582;1.456;2023-06-10T08:25:55;3.35;;;2.20;;
17496;SDS011;62150;43.582;1.456;2023-06-10T08:28:23;4.18;;;2.20;;
17496;SDS011;62150;43.582;1.456;2023-06-10T08:30:51;3.88;;;2.10;;
17496;SDS011;62150;43.582;1.456;2023-06-10T08:33:18;4.95;;;2.10;;
17496;SDS011;62150;43.582;1.456;2023-06-10T08:35:47;5.90;;;2.30;;
17496;SDS011;62150;43.582;1.456;2023-06-10T08:38:15;3.80;;;2.20;;
17496;SDS011;62150;43.582;1.456;2023-06-10T08:40:42;5.03;;;2.35;;
17496;SDS011;62150;43.582;1.456;2023-06-10T08:43:10;4.80;;;2.00;;
17496;SDS011;62150;43.582;1.456;2023-06-10T08:45:47;2.92;;;2.10;;
17496;SDS011;62150;43.582;1.456;2023-06-10T08:48:18;3.88;;;2.10;;
17496;SDS011;62150;43.582;1.456;2023-06-10T08:50:48;6.13;;;2.22;;
17496;SDS011;62150;43.582;1.456;2023-06-10T08:53:18;3.95;;;2.00;;
17496;SDS011;62150;43.582;1.456;2023-06-10T08:55:49;4.47;;;1.90;;
17496;SDS011;62150;43.582;1.456;2023-06-10T08:58:18;4.60;;;2.10;;
17496;SDS011;62150;43.582;1.456;2023-06-10T09:00:46;3.20;;;1.95;;
17496;SDS011;62150;43.582;1.456;2023-06-10T09:03:15;5.75;;;2.17;;
17496;SDS011;62150;43.582;1.456;2023-06-10T09:05:44;5.07;;;2.10;;
17496;SDS011;62150;43.582;1.456;2023-06-10T09:08:13;3.65;;;1.98;;
17496;SDS011;62150;43.582;1.456;2023-06-10T09:10:42;5.65;;;2.10;;
17496;SDS011;62150;43.582;1.456;2023-06-10T09:13:10;6.07;;;2.30;;
17496;SDS011;62150;43.582;1.456;2023-06-10T09:15:40;5.57;;;2.10;;
17496;SDS011;62150;43.582;1.456;2023-06-10T09:18:08;3.63;;;1.90;;
17496;SDS011;62150;43.582;1.456;2023-06-10T09:20:36;4.65;;;2.20;;
17496;SDS011;62150;43.582;1.456;2023-06-10T09:23:04;3.33;;;2.10;;
17496;SDS011;62150;43.582;1.456;2023-06-10T09:25:37;2.75;;;2.00;;
17496;SDS011;62150;43.582;1.456;2023-06-10T09:28:08;4.13;;;2.17;;
17496;SDS011;62150;43.582;1.456;2023-06-10T09:30:40;3.67;;;2.20;;
17496;SDS011;62150;43.582;1.456;2023-06-10T09:33:10;3.38;;;2.00;;
17496;SDS011;62150;43.582;1.456;2023-06-10T09:35:44;4.30;;;2.13;;
17496;SDS011;62150;43.582;1.456;2023-06-10T09:38:13;5.25;;;2.20;;
17496;SDS011;62150;43.582;1.456;2023-06-10T09:40:50;3.95;;;2.15;;
17496;SDS011;62150;43.582;1.456;2023-06-10T09:43:18;2.83;;;2.10;;
17496;SDS011;62150;43.582;1.456;2023-06-10T09:45:47;5.13;;;2.10;;
17496;SDS011;62150;43.582;1.456;2023-06-10T09:48:18;4.28;;;2.05;;
17496;SDS011;62150;43.582;1.456;2023-06-10T09:50:45;3.97;;;2.10;;
17496;SDS011;62150;43.582;1.456;2023-06-10T09:53:13;3.97;;;2.10;;
17496;SDS011;62150;43.582;1.456;2023-06-10T09:55:41;3.22;;;2.08;;
17496;SDS011;62150;43.582;1.456;2023-06-10T09:58:11;3.67;;;2.15;;
17496;SDS011;62150;43.582;1.456;2023-06-10T10:00:39;2.42;;;1.80;;
17496;SDS011;62150;43.582;1.456;2023-06-10T10:03:06;4.35;;;2.30;;
17496;SDS011;62150;43.582;1.456;2023-06-10T10:05:34;3.58;;;2.10;;
17496;SDS011;62150;43.582;1.456;2023-06-10T10:08:01;2.92;;;2.00;;
17496;SDS011;62150;43.582;1.456;2023-06-10T10:10:29;5.18;;;2.17;;
17496;SDS011;62150;43.582;1.456;2023-06-10T10:12:56;2.88;;;1.90;;
17496;SDS011;62150;43.582;1.456;2023-06-10T10:15:28;3.47;;;2.00;;
17496;SDS011;62150;43.582;1.456;2023-06-10T10:18:00;4.90;;;2.40;;
17496;SDS011;62150;43.582;1.456;2023-06-10T10:20:33;3.03;;;1.98;;
17496;SDS011;62150;43.582;1.456;2023-06-10T10:23:03;2.95;;;2.00;;
17496;SDS011;62150;43.582;1.456;2023-06-10T10:25:34;3.45;;;2.22;;
17496;SDS011;62150;43.582;1.456;2023-06-10T10:28:06;3.13;;;1.80;;
17496;SDS011;62150;43.582;1.456;2023-06-10T10:30:39;3.92;;;1.90;;
17496;SDS011;62150;43.582;1.456;2023-06-10T10:33:09;3.45;;;2.00;;
17496;SDS011;62150;43.582;1.456;2023-06-10T10:35:42;3.33;;;1.90;;
17496;SDS011;62150;43.582;1.456;2023-06-10T10:38:11;3.58;;;1.90;;
17496;SDS011;62150;43.582;1.456;2023-06-10T10:40:40;3.53;;;2.13;;
17496;SDS011;62150;43.582;1.456;2023-06-10T10:43:08;3.63;;;2.20;;
17496;SDS011;62150;43.582;1.456;2023-06-10T10:45:38;4.07;;;2.20;;
17496;SDS011;62150;43.582;1.456;2023-06-10T10:48:07;3.60;;;1.90;;
17496;SDS011;62150;43.582;1.456;2023-06-10T10:50:37;2.67;;;1.90;;
17496;SDS011;62150;43.582;1.456;2023-06-10T10:53:05;2.88;;;2.03;;
17496;SDS011;62150;43.582;1.456;2023-06-10T10:55:33;3.55;;;2.00;;
17496;SDS011;62150;43.582;1.456;2023-06-10T10:58:02;2.45;;;1.88;;
17496;SDS011;62150;43.582;1.456;2023-06-10T11:00:31;3.63;;;2.03;;
17496;SDS011;62150;43.582;1.456;2023-06-10T11:03:04;2.78;;;1.90;;
17496;SDS011;62150;43.582;1.456;2023-06-10T11:05:36;3.10;;;1.80;;
17496;SDS011;62150;43.582;1.456;2023-06-10T11:08:06;2.10;;;1.70;;
17496;SDS011;62150;43.582;1.456;2023-06-10T11:10:34;3.03;;;1.98;;
17496;SDS011;62150;43.582;1.456;2023-06-10T11:13:06;3.15;;;1.88;;
17496;SDS011;62150;43.582;1.456;2023-06-10T11:15:38;2.63;;;1.75;;
17496;SDS011;62150;43.582;1.456;2023-06-10T11:18:12;2.03;;;1.75;;
17496;SDS011;62150;43.582;1.456;2023-06-10T11:20:44;2.28;;;1.70;;
17496;SDS011;62150;43.582;1.456;2023-06-10T11:23:40;2.65;;;1.80;;
17496;SDS011;62150;43.582;1.456;2023-06-10T11:26:12;3.00;;;1.80;;
17496;SDS011;62150;43.582;1.456;2023-06-10T11:29:06;3.55;;;1.80;;
17496;SDS011;62150;43.582;1.456;2023-06-10T11:31:41;3.22;;;1.98;;
17496;SDS011;62150;43.582;1.456;2023-06-10T11:34:12;2.97;;;1.80;;
17496;SDS011;62150;43.582;1.456;2023-06-10T11:36:40;3.75;;;2.20;;
17496;SDS011;62150;43.582;1.456;2023-06-10T11:39:10;2.58;;;1.80;;
17496;SDS011;62150;43.582;1.456;2023-06-10T11:41:39;2.50;;;1.80;;
17496;SDS011;62150;43.582;1.456;2023-06-10T11:44:10;3.53;;;1.90;;
17496;SDS011;62150;43.582;1.456;2023-06-10T11:46:39;2.85;;;1.95;;
17496;SDS011;62150;43.582;1.456;2023-06-10T11:49:08;1.77;;;1.67;;
17496;SDS011;62150;43.582;1.456;2023-06-10T11:51:37;3.25;;;1.80;;
17496;SDS011;62150;43.582;1.456;2023-06-10T11:54:09;2.00;;;1.70;;
17496;SDS011;62150;43.582;1.456;2023-06-10T11:56:36;3.72;;;1.60;;
17496;SDS011;62150;43.582;1.456;2023-06-10T11:59:04;2.28;;;1.70;;
17496;SDS011;62150;43.582;1.456;2023-06-10T12:01:33;2.30;;;1.80;;
17496;SDS011;62150;43.582;1.456;2023-06-10T12:04:03;2.58;;;1.70;;
17496;SDS011;62150;43.582;1.456;2023-06-10T12:06:40;3.35;;;1.83;;
17496;SDS011;62150;43.582;1.456;2023-06-10T12:09:15;2.28;;;1.80;;
17496;SDS011;62150;43.582;1.456;2023-06-10T12:11:44;3.33;;;1.90;;
17496;SDS011;62150;43.582;1.456;2023-06-10T12:14:14;4.03;;;2.00;;
17496;SDS011;62150;43.582;1.456;2023-06-10T12:16:47;3.10;;;1.80;;
17496;SDS011;62150;43.582;1.456;2023-06-10T12:19:15;2.45;;;1.65;;
17496;SDS011;62150;43.582;1.456;2023-06-10T12:21:44;3.70;;;1.90;;
17496;SDS011;62150;43.582;1.456;2023-06-10T12:24:12;2.00;;;1.80;;
17496;SDS011;62150;43.582;1.456;2023-06-10T12:26:40;2.97;;;2.00;;
17496;SDS011;62150;43.582;1.456;2023-06-10T12:29:19;2.08;;;1.70;;
17496;SDS011;62150;43.582;1.456;2023-06-10T12:31:53;2.03;;;1.70;;
17496;SDS011;62150;43.582;1.456;2023-06-10T12:34:27;3.05;;;1.90;;
17496;SDS011;62150;43.582;1.456;2023-06-10T12:37:00;1.80;;;1.70;;
17496;SDS011;62150;43.582;1.456;2023-06-10T12:39:29;2.72;;;1.70;;
17496;SDS011;62150;43.582;1.456;2023-06-10T12:41:57;1.80;;;1.60;;
17496;SDS011;62150;43.582;1.456;2023-06-10T12:44:34;2.92;;;1.83;;
17496;SDS011;62150;43.582;1.456;2023-06-10T12:47:07;2.13;;;1.70;;
17496;SDS011;62150;43.582;1.456;2023-06-10T12:49:37;2.53;;;1.65;;
17496;SDS011;62150;43.582;1.456;2023-06-10T12:52:06;2.15;;;1.60;;
17496;SDS011;62150;43.582;1.456;2023-06-10T12:54:35;4.03;;;1.73;;
17496;SDS011;62150;43.582;1.456;2023-06-10T12:57:03;2.05;;;1.58;;
17496;SDS011;62150;43.582;1.456;2023-06-10T12:59:31;2.47;;;1.60;;
17496;SDS011;62150;43.582;1.456;2023-06-10T13:01:58;2.42;;;1.55;;
17496;SDS011;62150;43.582;1.456;2023-06-10T13:04:26;1.67;;;1.58;;
17496;SDS011;62150;43.582;1.456;2023-06-10T13:06:53;1.70;;;1.60;;
17496;SDS011;62150;43.582;1.456;2023-06-10T13:09:22;2.42;;;1.70;;
17496;SDS011;62150;43.582;1.456;2023-06-10T13:11:50;1.95;;;1.60;;
17496;SDS011;62150;43.582;1.456;2023-06-10T13:14:17;3.15;;;1.98;;
17496;SDS011;62150;43.582;1.456;2023-06-10T13:16:47;3.47;;;1.77;;
17496;SDS011;62150;43.582;1.456;2023-06-10T13:19:15;4.53;;;2.00;;
17496;SDS011;62150;43.582;1.456;2023-06-10T13:21:42;2.83;;;1.60;;
17496;SDS011;62150;43.582;1.456;2023-06-10T13:24:10;1.83;;;1.58;;
17496;SDS011;62150;43.582;1.456;2023-06-10T13:26:39;3.33;;;2.00;;
17496;SDS011;62150;43.582;1.456;2023-06-10T13:29:06;2.08;;;1.80;;
17496;SDS011;62150;43.582;1.456;2023-06-10T13:31:39;2.08;;;1.70;;
17496;SDS011;62150;43.582;1.456;2023-06-10T13:34:07;3.13;;;1.90;;
17496;SDS011;62150;43.582;1.456;2023-06-10T13:36:35;3.00;;;1.90;;
17496;SDS011;62150;43.582;1.456;2023-06-10T13:39:03;2.47;;;1.80;;
17496;SDS011;62150;43.582;1.456;2023-06-10T13:41:30;2.38;;;1.80;;
17496;SDS011;62150;43.582;1.456;2023-06-10T13:43:59;2.10;;;1.90;;
17496;SDS011;62150;43.582;1.456;2023-06-10T13:46:27;3.75;;;1.98;;
17496;SDS011;62150;43.582;1.456;2023-06-10T13:48:54;3.50;;;1.90;;
17496;SDS011;62150;43.582;1.456;2023-06-10T13:51:21;3.33;;;1.70;;
17496;SDS011;62150;43.582;1.456;2023-06-10T13:53:49;3.95;;;1.90;;
17496;SDS011;62150;43.582;1.456;2023-06-10T13:56:17;2.05;;;1.60;;
17496;SDS011;62150;43.582;1.456;2023-06-10T13:58:44;2.63;;;1.80;;
17496;SDS011;62150;43.582;1.456;2023-06-10T14:01:13;2.08;;;1.80;;
17496;SDS011;62150;43.582;1.456;2023-06-10T14:03:40;2.60;;;1.90;;
17496;SDS011;62150;43.582;1.456;2023-06-10T14:06:08;2.20;;;1.75;;
17496;SDS011;62150;43.582;1.456;2023-06-10T14:08:38;3.67;;;1.83;;
17496;SDS011;62150;43.582;1.456;2023-06-10T14:11:06;2.45;;;1.70;;
17496;SDS011;62150;43.582;1.456;2023-06-10T14:13:33;2.90;;;1.92;;
17496;SDS011;62150;43.582;1.456;2023-06-10T14:16:03;2.00;;;1.80;;
17496;SDS011;62150;43.582;1.456;2023-06-10T14:18:32;1.92;;;1.70;;
17496;SDS011;62150;43.582;1.456;2023-06-10T14:20:59;2.42;;;1.80;;
17496;SDS011;62150;43.582;1.456;2023-06-10T14:23:27;3.13;;;2.13;;
17496;SDS011;62150;43.582;1.456;2023-06-10T14:25:55;10.70;;;4.95;;
17496;SDS011;62150;43.582;1.456;2023-06-10T14:28:23;7.90;;;3.40;;
17496;SDS011;62150;43.582;1.456;2023-06-10T14:30:52;4.65;;;2.50;;
17496;SDS011;62150;43.582;1.456;2023-06-10T14:33:20;4.28;;;2.30;;
17496;SDS011;62150;43.582;1.456;2023-06-10T14:35:49;2.55;;;1.80;;
17496;SDS011;62150;43.582;1.456;2023-06-10T14:38:16;2.00;;;1.70;;
17496;SDS011;62150;43.582;1.456;2023-06-10T14:40:44;2.60;;;1.60;;
17496;SDS011;62150;43.582;1.456;2023-06-10T14:43:11;1.70;;;1.60;;
17496;SDS011;62150;43.582;1.456;2023-06-10T14:45:39;1.67;;;1.58;;
17496;SDS011;62150;43.582;1.456;2023-06-10T14:48:07;3.03;;;1.67;;
17496;SDS011;62150;43.582;1.456;2023-06-10T14:50:34;2.58;;;1.42;;
17496;SDS011;62150;43.582;1.456;2023-06-10T14:53:03;3.13;;;1.63;;
17496;SDS011;62150;43.582;1.456;2023-06-10T14:55:31;2.38;;;1.70;;
17496;SDS011;62150;43.582;1.456;2023-06-10T14:57:58;1.63;;;1.52;;
17496;SDS011;62150;43.582;1.456;2023-06-10T15:00:26;1.60;;;1.50;;
17496;SDS011;62150;43.582;1.456;2023-06-10T15:02:53;2.95;;;1.70;;
17496;SDS011;62150;43.582;1.456;2023-06-10T15:05:23;1.63;;;1.48;;
17496;SDS011;62150;43.582;1.456;2023-06-10T15:07:50;2.65;;;1.70;;
17496;SDS011;62150;43.582;1.456;2023-06-10T15:10:19;1.88;;;1.63;;
17496;SDS011;62150;43.582;1.456;2023-06-10T15:12:47;2.33;;;1.42;;
17496;SDS011;62150;43.582;1.456;2023-06-10T15:15:20;2.45;;;1.70;;
17496;SDS011;62150;43.582;1.456;2023-06-10T15:17:48;1.55;;;1.40;;
17496;SDS011;62150;43.582;1.456;2023-06-10T15:20:15;2.80;;;1.80;;
17496;SDS011;62150;43.582;1.456;2023-06-10T15:22:43;1.85;;;1.30;;
17496;SDS011;62150;43.582;1.456;2023-06-10T15:25:10;1.70;;;1.60;;
17496;SDS011;62150;43.582;1.456;2023-06-10T15:27:39;2.05;;;1.60;;
17496;SDS011;62150;43.582;1.456;2023-06-10T15:30:07;1.95;;;1.60;;
17496;SDS011;62150;43.582;1.456;2023-06-10T15:32:35;2.63;;;1.60;;
17496;SDS011;62150;43.582;1.456;2023-06-10T15:35:03;3.42;;;1.60;;
17496;SDS011;62150;43.582;1.456;2023-06-10T15:37:31;2.17;;;1.75;;
17496;SDS011;62150;43.582;1.456;2023-06-10T15:39:58;1.85;;;1.70;;
17496;SDS011;62150;43.582;1.456;2023-06-10T15:42:26;1.63;;;1.52;;
17496;SDS011;62150;43.582;1.456;2023-06-10T15:44:55;1.65;;;1.55;;
17496;SDS011;62150;43.582;1.456;2023-06-10T15:47:22;1.80;;;1.70;;
17496;SDS011;62150;43.582;1.456;2023-06-10T15:49:50;2.25;;;1.70;;
17496;SDS011;62150;43.582;1.456;2023-06-10T15:52:17;2.75;;;1.90;;
17496;SDS011;62150;43.582;1.456;2023-06-10T15:54:45;2.35;;;1.75;;
17496;SDS011;62150;43.582;1.456;2023-06-10T15:57:12;2.08;;;1.70;;
17496;SDS011;62150;43.582;1.456;2023-06-10T15:59:40;3.20;;;1.70;;
17496;SDS011;62150;43.582;1.456;2023-06-10T16:02:09;1.85;;;1.70;;
17496;SDS011;62150;43.582;1.456;2023-06-10T16:04:37;2.53;;;1.63;;
17496;SDS011;62150;43.582;1.456;2023-06-10T16:07:04;2.47;;;1.80;;
17496;SDS011;62150;43.582;1.456;2023-06-10T16:09:32;2.33;;;1.70;;
17496;SDS011;62150;43.582;1.456;2023-06-10T16:12:00;2.38;;;1.70;;
17496;SDS011;62150;43.582;1.456;2023-06-10T16:14:28;2.08;;;1.63;;
17496;SDS011;62150;43.582;1.456;2023-06-10T16:16:56;4.57;;;2.45;;
17496;SDS011;62150;43.582;1.456;2023-06-10T16:19:25;3.10;;;1.90;;
17496;SDS011;62150;43.582;1.456;2023-06-10T16:21:53;3.33;;;1.80;;
17496;SDS011;62150;43.582;1.456;2023-06-10T16:24:20;2.72;;;1.90;;
17496;SDS011;62150;43.582;1.456;2023-06-10T16:26:48;2.38;;;1.70;;
17496;SDS011;62150;43.582;1.456;2023-06-10T16:29:15;1.67;;;1.50;;
17496;SDS011;62150;43.582;1.456;2023-06-10T16:31:43;2.20;;;1.70;;
17496;SDS011;62150;43.582;1.456;2023-06-10T16:34:10;2.85;;;1.90;;
17496;SDS011;62150;43.582;1.456;2023-06-10T16:36:39;1.90;;;1.70;;
17496;SDS011;62150;43.582;1.456;2023-06-10T16:39:07;2.53;;;1.70;;
17496;SDS011;62150;43.582;1.456;2023-06-10T16:41:35;2.45;;;1.77;;
17496;SDS011;62150;43.582;1.456;2023-06-10T16:44:02;2.03;;;1.70;;
17496;SDS011;62150;43.582;1.456;2023-06-10T16:46:30;2.08;;;1.70;;
17496;SDS011;62150;43.582;1.456;2023-06-10T16:48:57;2.00;;;1.60;;
17496;SDS011;62150;43.582;1.456;2023-06-10T16:51:25;6.40;;;1.80;;
17496;SDS011;62150;43.582;1.456;2023-06-10T16:53:54;2.92;;;1.90;;
17496;SDS011;62150;43.582;1.456;2023-06-10T16:56:21;3.28;;;1.90;;
17496;SDS011;62150;43.582;1.456;2023-06-10T16:58:49;2.03;;;1.70;;
17496;SDS011;62150;43.582;1.456;2023-06-10T17:01:17;2.50;;;1.70;;
17496;SDS011;62150;43.582;1.456;2023-06-10T17:03:44;2.13;;;1.70;;
17496;SDS011;62150;43.582;1.456;2023-06-10T17:06:12;2.88;;;1.92;;
17496;SDS011;62150;43.582;1.456;2023-06-10T17:08:39;3.08;;;1.90;;
17496;SDS011;62150;43.582;1.456;2023-06-10T17:11:08;2.78;;;1.73;;
17496;SDS011;62150;43.582;1.456;2023-06-10T17:13:36;3.75;;;1.90;;
17496;SDS011;62150;43.582;1.456;2023-06-10T17:16:03;2.78;;;1.70;;
17496;SDS011;62150;43.582;1.456;2023-06-10T17:18:31;3.78;;;1.70;;
17496;SDS011;62150;43.582;1.456;2023-06-10T17:20:59;4.18;;;2.10;;
17496;SDS011;62150;43.582;1.456;2023-06-10T17:23:27;1.83;;;1.67;;
17496;SDS011;62150;43.582;1.456;2023-06-10T17:25:55;2.58;;;2.00;;
17496;SDS011;62150;43.582;1.456;2023-06-10T17:28:24;3.30;;;1.73;;
17496;SDS011;62150;43.582;1.456;2023-06-10T17:30:51;2.40;;;1.77;;
17496;SDS011;62150;43.582;1.456;2023-06-10T17:33:19;2.60;;;1.92;;
17496;SDS011;62150;43.582;1.456;2023-06-10T17:35:46;3.45;;;1.80;;
17496;SDS011;62150;43.582;1.456;2023-06-10T17:38:14;2.88;;;1.90;;
17496;SDS011;62150;43.582;1.456;2023-06-10T17:40:42;2.20;;;1.80;;
17496;SDS011;62150;43.582;1.456;2023-06-10T17:43:09;3.08;;;2.00;;
17496;SDS011;62150;43.582;1.456;2023-06-10T17:45:38;2.72;;;1.80;;
17496;SDS011;62150;43.582;1.456;2023-06-10T17:48:06;3.25;;;1.83;;
17496;SDS011;62150;43.582;1.456;2023-06-10T17:50:33;2.53;;;1.75;;
17496;SDS011;62150;43.582;1.456;2023-06-10T17:53:01;2.30;;;1.90;;
17496;SDS011;62150;43.582;1.456;2023-06-10T17:55:28;3.22;;;1.90;;
17496;SDS011;62150;43.582;1.456;2023-06-10T17:57:56;4.07;;;2.20;;
17496;SDS011;62150;43.582;1.456;2023-06-10T18:00:23;3.95;;;2.40;;
17496;SDS011;62150;43.582;1.456;2023-06-10T18:02:53;4.20;;;2.35;;
17496;SDS011;62150;43.582;1.456;2023-06-10T18:05:20;3.40;;;2.10;;
17496;SDS011;62150;43.582;1.456;2023-06-10T18:07:48;2.83;;;2.13;;
17496;SDS011;62150;43.582;1.456;2023-06-10T18:10:16;2.85;;;1.92;;
17496;SDS011;62150;43.582;1.456;2023-06-10T18:12:43;3.72;;;2.20;;
17496;SDS011;62150;43.582;1.456;2023-06-10T18:15:11;2.75;;;2.10;;
17496;SDS011;62150;43.582;1.456;2023-06-10T18:17:39;3.67;;;2.13;;
17496;SDS011;62150;43.582;1.456;2023-06-10T18:20:08;2.85;;;2.00;;
17496;SDS011;62150;43.582;1.456;2023-06-10T18:22:37;2.88;;;1.90;;
17496;SDS011;62150;43.582;1.456;2023-06-10T18:25:05;3.03;;;1.80;;
17496;SDS011;62150;43.582;1.456;2023-06-10T18:27:33;3.22;;;1.90;;
17496;SDS011;62150;43.582;1.456;2023-06-10T18:30:00;2.85;;;1.70;;
17496;SDS011;62150;43.582;1.456;2023-06-10T18:32:28;3.25;;;2.08;;
17496;SDS011;62150;43.582;1.456;2023-06-10T18:34:56;3.25;;;2.00;;
17496;SDS011;62150;43.582;1.456;2023-06-10T18:37:25;2.55;;;1.80;;
17496;SDS011;62150;43.582;1.456;2023-06-10T18:39:52;4.20;;;2.10;;
17496;SDS011;62150;43.582;1.456;2023-06-10T18:42:20;3.50;;;2.00;;
17496;SDS011;62150;43.582;1.456;2023-06-10T18:44:47;2.28;;;1.83;;
17496;SDS011;62150;43.582;1.456;2023-06-10T18:47:15;3.65;;;2.20;;
17496;SDS011;62150;43.582;1.456;2023-06-10T18:49:42;3.60;;;2.40;;
17496;SDS011;62150;43.582;1.456;2023-06-10T18:52:10;4.15;;;2.40;;
17496;SDS011;62150;43.582;1.456;2023-06-10T18:54:39;3.58;;;2.40;;
17496;SDS011;62150;43.582;1.456;2023-06-10T18:57:07;3.30;;;2.10;;
17496;SDS011;62150;43.582;1.456;2023-06-10T18:59:36;3.95;;;2.40;;
17496;SDS011;62150;43.582;1.456;2023-06-10T19:02:04;4.57;;;2.40;;
17496;SDS011;62150;43.582;1.456;2023-06-10T19:04:32;3.63;;;2.30;;
17496;SDS011;62150;43.582;1.456;2023-06-10T19:07:00;3.13;;;2.13;;
17496;SDS011;62150;43.582;1.456;2023-06-10T19:09:27;3.67;;;2.20;;
17496;SDS011;62150;43.582;1.456;2023-06-10T19:11:56;4.85;;;2.30;;
17496;SDS011;62150;43.582;1.456;2023-06-10T19:14:24;3.15;;;2.28;;
17496;SDS011;62150;43.582;1.456;2023-06-10T19:16:51;3.13;;;2.35;;
17496;SDS011;62150;43.582;1.456;2023-06-10T19:19:18;4.90;;;2.75;;
17496;SDS011;62150;43.582;1.456;2023-06-10T19:21:46;4.03;;;2.40;;
17496;SDS011;62150;43.582;1.456;2023-06-10T19:24:13;4.60;;;2.70;;
17496;SDS011;62150;43.582;1.456;2023-06-10T19:26:41;5.82;;;2.70;;
17496;SDS011;62150;43.582;1.456;2023-06-10T19:29:10;5.68;;;2.95;;
17496;SDS011;62150;43.582;1.456;2023-06-10T19:31:37;4.85;;;2.90;;
17496;SDS011;62150;43.582;1.456;2023-06-10T19:34:05;5.18;;;2.83;;
17496;SDS011;62150;43.582;1.456;2023-06-10T19:36:32;5.53;;;2.65;;
17496;SDS011;62150;43.582;1.456;2023-06-10T19:39:00;4.30;;;2.67;;
17496;SDS011;62150;43.582;1.456;2023-06-10T19:41:27;5.10;;;2.78;;
17496;SDS011;62150;43.582;1.456;2023-06-10T19:43:55;4.72;;;2.78;;
17496;SDS011;62150;43.582;1.456;2023-06-10T19:46:23;4.32;;;2.65;;
17496;SDS011;62150;43.582;1.456;2023-06-10T19:48:51;5.00;;;2.65;;
17496;SDS011;62150;43.582;1.456;2023-06-10T19:51:20;6.85;;;2.92;;
17496;SDS011;62150;43.582;1.456;2023-06-10T19:53:47;7.75;;;2.95;;
17496;SDS011;62150;43.582;1.456;2023-06-10T19:56:15;5.78;;;2.90;;
17496;SDS011;62150;43.582;1.456;2023-06-10T19:58:46;5.70;;;2.70;;
17496;SDS011;62150;43.582;1.456;2023-06-10T20:01:14;4.90;;;2.50;;
17496;SDS011;62150;43.582;1.456;2023-06-10T20:03:43;3.72;;;2.20;;
17496;SDS011;62150;43.582;1.456;2023-06-10T20:06:11;4.28;;;2.20;;
17496;SDS011;62150;43.582;1.456;2023-06-10T20:08:38;9.90;;;4.40;;
17496;SDS011;62150;43.582;1.456;2023-06-10T20:11:06;7.80;;;3.38;;
17496;SDS011;62150;43.582;1.456;2023-06-10T20:13:34;8.57;;;3.70;;
17496;SDS011;62150;43.582;1.456;2023-06-10T20:16:01;6.85;;;3.00;;
17496;SDS011;62150;43.582;1.456;2023-06-10T20:18:29;5.35;;;2.80;;
17496;SDS011;62150;43.582;1.456;2023-06-10T20:20:57;3.80;;;2.40;;
17496;SDS011;62150;43.582;1.456;2023-06-10T20:23:25;4.10;;;2.30;;
17496;SDS011;62150;43.582;1.456;2023-06-10T20:25:52;4.43;;;2.20;;
17496;SDS011;62150;43.582;1.456;2023-06-10T20:28:20;5.18;;;2.15;;
17496;SDS011;62150;43.582;1.456;2023-06-10T20:30:48;3.25;;;2.28;;
17496;SDS011;62150;43.582;1.456;2023-06-10T20:33:15;4.78;;;2.33;;
17496;SDS011;62150;43.582;1.456;2023-06-10T20:35:43;3.50;;;1.92;;
17496;SDS011;62150;43.582;1.456;2023-06-10T20:38:11;3.75;;;2.15;;